createdAt,value
2023-01-30T00:06:05.827Z,28.30
2023-01-30T00:26:05.578Z,33.90
2023-01-30T00:46:05.350Z,21.30
2023-01-30T01:06:05.043Z,16.80
2023-01-30T01:26:04.785Z,24.10
2023-01-30T01:46:04.605Z,19.20
2023-01-30T02:06:04.249Z,21.90
2023-01-30T02:26:03.989Z,17.30
2023-01-30T02:46:03.784Z,10.20
2023-01-30T03:06:03.470Z,15.20
2023-01-30T03:26:03.265Z,10.70
2023-01-30T03:46:02.928Z,14.30
2023-01-30T04:06:02.607Z,4.00
2023-01-30T04:26:02.314Z,1.10
2023-01-30T04:46:02.037Z,0.30
2023-01-30T05:06:01.811Z,1.50
2023-01-30T05:26:01.474Z,2.30
2023-01-30T05:46:01.219Z,1.40
2023-01-30T06:06:00.973Z,1.40
2023-01-30T06:26:03.283Z,1.30
2023-01-30T06:46:00.639Z,2.60
2023-01-30T07:06:00.154Z,8.60
2023-01-30T07:25:59.880Z,5.70
2023-01-30T07:45:59.616Z,8.80
2023-01-30T08:05:59.345Z,4.50
2023-01-30T08:25:59.147Z,2.40
2023-01-30T08:45:58.815Z,5.10
2023-01-30T09:05:58.523Z,6.30
2023-01-30T09:25:58.271Z,4.60
2023-01-30T09:45:58.004Z,3.80
2023-01-30T10:05:57.689Z,6.40
2023-01-30T10:25:57.414Z,2.30
2023-01-30T10:45:57.176Z,5.10
2023-01-30T11:05:56.861Z,1.60
2023-01-30T11:26:09.413Z,1.40
2023-01-30T11:45:57.325Z,2.30
2023-01-30T12:05:56.056Z,2.40
2023-01-30T12:25:55.792Z,5.30
2023-01-30T12:45:55.558Z,8.20
2023-01-30T13:05:56.240Z,5.50
2023-01-30T13:25:54.946Z,6.50
2023-01-30T13:45:54.719Z,9.00
2023-01-30T14:05:54.412Z,9.90
2023-01-30T14:25:54.147Z,7.70
2023-01-30T14:45:53.908Z,4.30
2023-01-30T15:05:53.586Z,7.00
2023-01-30T15:25:53.304Z,5.60
2023-01-30T15:45:53.083Z,4.50
2023-01-30T16:05:52.741Z,7.40
2023-01-30T16:25:52.451Z,3.70
2023-01-30T16:45:52.245Z,5.60
2023-01-30T17:05:51.885Z,4.50
2023-01-30T17:25:51.601Z,3.60
2023-01-30T17:45:51.354Z,8.20
2023-01-30T18:05:51.081Z,5.30
2023-01-30T18:25:50.815Z,6.10
2023-01-30T18:45:50.527Z,1.50
2023-01-30T19:05:50.283Z,4.70
2023-01-30T19:25:50.069Z,7.50
2023-01-30T19:45:49.781Z,2.20
2023-01-30T20:05:49.455Z,3.80
2023-01-30T20:25:49.190Z,3.10
2023-01-30T20:45:48.914Z,6.40
2023-01-30T21:05:48.650Z,3.10
2023-01-30T21:25:48.384Z,1.90
2023-01-30T21:45:48.144Z,7.10
2023-01-30T22:05:47.848Z,5.20
2023-01-30T22:25:47.580Z,6.40
2023-01-30T22:45:47.309Z,6.30
2023-01-30T23:05:47.268Z,1.80
2023-01-30T23:25:46.886Z,1.80
2023-01-30T23:45:46.582Z,3.50
